sensor_id;sensor_type;location;lat;lon;timestamp;P1;durP1;ratioP1;P2;durP2;ratioP2
44720;SDS011;30450;52.534;13.398;2023-07-28T00:02:03;1.40;;;1.30;;
44720;SDS011;30450;52.534;13.398;2023-07-28T00:04:29;1.92;;;1.52;;
44720;SDS011;30450;52.534;13.398;2023-07-28T00:06:55;1.80;;;1.30;;
44720;SDS011;30450;52.534;13.398;2023-07-28T00:09:21;1.95;;;1.25;;
44720;SDS011;30450;52.534;13.398;2023-07-28T00:11:48;1.08;;;1.00;;
44720;SDS011;30450;52.534;13.398;2023-07-28T00:14:14;1.27;;;1.17;;
44720;SDS011;30450;52.534;13.398;2023-07-28T00:16:40;1.80;;;1.20;;
44720;SDS011;30450;52.534;13.398;2023-07-28T00:19:06;1.30;;;1.20;;
44720;SDS011;30450;52.534;13.398;2023-07-28T00:21:32;1.13;;;1.02;;
44720;SDS011;30450;52.534;13.398;2023-07-28T00:23:58;1.73;;;1.30;;
44720;SDS011;30450;52.534;13.398;2023-07-28T00:26:24;1.63;;;1.20;;
44720;SDS011;30450;52.534;13.398;2023-07-28T00:28:50;1.45;;;1.10;;
44720;SDS011;30450;52.534;13.398;2023-07-28T00:31:15;2.20;;;1.27;;
44720;SDS011;30450;52.534;13.398;2023-07-28T00:33:41;1.27;;;1.17;;
44720;SDS011;30450;52.534;13.398;2023-07-28T00:36:07;1.65;;;1.40;;
44720;SDS011;30450;52.534;13.398;2023-07-28T00:38:33;3.13;;;1.67;;
44720;SDS011;30450;52.534;13.398;2023-07-28T00:40:59;1.65;;;1.35;;
44720;SDS011;30450;52.534;13.398;2023-07-28T00:43:25;2.05;;;1.80;;
44720;SDS011;30450;52.534;13.398;2023-07-28T00:45:50;1.75;;;1.48;;
44720;SDS011;30450;52.534;13.398;2023-07-28T00:48:17;3.88;;;2.08;;
44720;SDS011;30450;52.534;13.398;2023-07-28T00:50:46;3.35;;;2.08;;
44720;SDS011;30450;52.534;13.398;2023-07-28T00:53:12;3.85;;;2.08;;
44720;SDS011;30450;52.534;13.398;2023-07-28T00:55:38;2.08;;;1.90;;
44720;SDS011;30450;52.534;13.398;2023-07-28T00:58:04;2.80;;;1.70;;
44720;SDS011;30450;52.534;13.398;2023-07-28T01:00:30;3.80;;;1.83;;
44720;SDS011;30450;52.534;13.398;2023-07-28T01:05:38;2.13;;;1.95;;
44720;SDS011;30450;52.534;13.398;2023-07-28T01:08:16;3.10;;;2.20;;
44720;SDS011;30450;52.534;13.398;2023-07-28T01:10:45;4.43;;;2.10;;
44720;SDS011;30450;52.534;13.398;2023-07-28T01:13:10;2.88;;;2.10;;
44720;SDS011;30450;52.534;13.398;2023-07-28T01:15:36;3.47;;;2.50;;
44720;SDS011;30450;52.534;13.398;2023-07-28T01:18:02;2.78;;;2.10;;
44720;SDS011;30450;52.534;13.398;2023-07-28T01:20:29;6.20;;;1.70;;
44720;SDS011;30450;52.534;13.398;2023-07-28T01:23:07;4.03;;;2.07;;
44720;SDS011;30450;52.534;13.398;2023-07-28T01:28:07;1.75;;;1.65;;
44720;SDS011;30450;52.534;13.398;2023-07-28T01:30:33;3.28;;;1.75;;
44720;SDS011;30450;52.534;13.398;2023-07-28T01:32:59;3.90;;;1.88;;
44720;SDS011;30450;52.534;13.398;2023-07-28T01:35:25;4.80;;;1.83;;
44720;SDS011;30450;52.534;13.398;2023-07-28T01:37:51;3.13;;;1.80;;
44720;SDS011;30450;52.534;13.398;2023-07-28T01:40:17;5.03;;;1.70;;
44720;SDS011;30450;52.534;13.398;2023-07-28T01:42:43;2.20;;;1.60;;
44720;SDS011;30450;52.534;13.398;2023-07-28T01:45:09;4.00;;;2.63;;
44720;SDS011;30450;52.534;13.398;2023-07-28T01:47:35;4.05;;;2.22;;
44720;SDS011;30450;52.534;13.398;2023-07-28T01:50:01;2.95;;;2.22;;
44720;SDS011;30450;52.534;13.398;2023-07-28T01:52:27;2.30;;;2.10;;
44720;SDS011;30450;52.534;13.398;2023-07-28T01:54:53;3.00;;;2.13;;
44720;SDS011;30450;52.534;13.398;2023-07-28T01:57:19;5.18;;;2.90;;
44720;SDS011;30450;52.534;13.398;2023-07-28T01:59:45;3.00;;;2.10;;
44720;SDS011;30450;52.534;13.398;2023-07-28T02:02:11;3.28;;;2.55;;
44720;SDS011;30450;52.534;13.398;2023-07-28T02:04:36;3.22;;;2.35;;
44720;SDS011;30450;52.534;13.398;2023-07-28T02:07:02;4.20;;;3.30;;
44720;SDS011;30450;52.534;13.398;2023-07-28T02:09:28;2.85;;;2.65;;
44720;SDS011;30450;52.534;13.398;2023-07-28T02:11:54;3.70;;;2.75;;
44720;SDS011;30450;52.534;13.398;2023-07-28T02:14:20;3.40;;;3.10;;
44720;SDS011;30450;52.534;13.398;2023-07-28T02:16:45;5.90;;;3.50;;
44720;SDS011;30450;52.534;13.398;2023-07-28T02:19:11;4.65;;;3.15;;
44720;SDS011;30450;52.534;13.398;2023-07-28T02:21:37;3.97;;;3.20;;
44720;SDS011;30450;52.534;13.398;2023-07-28T02:24:03;4.07;;;3.67;;
44720;SDS011;30450;52.534;13.398;2023-07-28T02:26:29;3.92;;;3.63;;
44720;SDS011;30450;52.534;13.398;2023-07-28T02:28:55;4.45;;;4.10;;
44720;SDS011;30450;52.534;13.398;2023-07-28T02:31:20;4.50;;;4.03;;
44720;SDS011;30450;52.534;13.398;2023-07-28T02:33:46;6.47;;;3.70;;
44720;SDS011;30450;52.534;13.398;2023-07-28T02:36:12;5.65;;;5.15;;
44720;SDS011;30450;52.534;13.398;2023-07-28T02:38:38;8.85;;;4.72;;
44720;SDS011;30450;52.534;13.398;2023-07-28T02:41:03;5.30;;;4.43;;
44720;SDS011;30450;52.534;13.398;2023-07-28T02:43:29;5.65;;;4.10;;
44720;SDS011;30450;52.534;13.398;2023-07-28T02:45:55;4.97;;;4.47;;
44720;SDS011;30450;52.534;13.398;2023-07-28T02:48:21;4.65;;;4.25;;
44720;SDS011;30450;52.534;13.398;2023-07-28T02:50:49;5.40;;;4.60;;
44720;SDS011;30450;52.534;13.398;2023-07-28T02:53:15;4.90;;;4.22;;
44720;SDS011;30450;52.534;13.398;2023-07-28T02:55:45;5.07;;;4.55;;
44720;SDS011;30450;52.534;13.398;2023-07-28T02:58:10;5.22;;;4.82;;
44720;SDS011;30450;52.534;13.398;2023-07-28T03:00:39;4.82;;;4.43;;
44720;SDS011;30450;52.534;13.398;2023-07-28T03:03:05;8.50;;;4.65;;
44720;SDS011;30450;52.534;13.398;2023-07-28T03:05:31;5.32;;;4.85;;
44720;SDS011;30450;52.534;13.398;2023-07-28T03:07:57;7.15;;;5.05;;
44720;SDS011;30450;52.534;13.398;2023-07-28T03:10:23;5.95;;;5.43;;
44720;SDS011;30450;52.534;13.398;2023-07-28T03:12:49;7.03;;;5.47;;
44720;SDS011;30450;52.534;13.398;2023-07-28T03:15:15;6.72;;;5.60;;
44720;SDS011;30450;52.534;13.398;2023-07-28T03:17:41;5.55;;;5.05;;
44720;SDS011;30450;52.534;13.398;2023-07-28T03:20:07;7.25;;;5.95;;
44720;SDS011;30450;52.534;13.398;2023-07-28T03:22:33;7.57;;;5.22;;
44720;SDS011;30450;52.534;13.398;2023-07-28T03:24:59;5.82;;;5.35;;
44720;SDS011;30450;52.534;13.398;2023-07-28T03:27:24;5.47;;;4.93;;
44720;SDS011;30450;52.534;13.398;2023-07-28T03:29:50;5.70;;;5.20;;
44720;SDS011;30450;52.534;13.398;2023-07-28T03:32:16;5.10;;;4.53;;
44720;SDS011;30450;52.534;13.398;2023-07-28T03:34:42;9.82;;;6.15;;
44720;SDS011;30450;52.534;13.398;2023-07-28T03:37:08;6.50;;;5.72;;
44720;SDS011;30450;52.534;13.398;2023-07-28T03:39:34;7.05;;;5.28;;
44720;SDS011;30450;52.534;13.398;2023-07-28T03:42:00;5.95;;;5.35;;
44720;SDS011;30450;52.534;13.398;2023-07-28T03:44:26;6.43;;;5.82;;
44720;SDS011;30450;52.534;13.398;2023-07-28T03:46:52;8.55;;;6.43;;
44720;SDS011;30450;52.534;13.398;2023-07-28T03:49:18;11.35;;;5.93;;
44720;SDS011;30450;52.534;13.398;2023-07-28T03:51:44;7.28;;;5.90;;
44720;SDS011;30450;52.534;13.398;2023-07-28T03:54:10;6.72;;;6.03;;
44720;SDS011;30450;52.534;13.398;2023-07-28T03:56:35;8.80;;;6.15;;
44720;SDS011;30450;52.534;13.398;2023-07-28T03:59:01;6.72;;;6.03;;
44720;SDS011;30450;52.534;13.398;2023-07-28T04:01:26;13.43;;;5.95;;
44720;SDS011;30450;52.534;13.398;2023-07-28T04:03:52;7.57;;;5.53;;
44720;SDS011;30450;52.534;13.398;2023-07-28T04:06:18;8.57;;;6.50;;
44720;SDS011;30450;52.534;13.398;2023-07-28T04:08:44;7.57;;;6.22;;
44720;SDS011;30450;52.534;13.398;2023-07-28T04:11:10;8.77;;;6.72;;
44720;SDS011;30450;52.534;13.398;2023-07-28T04:13:36;9.02;;;6.57;;
44720;SDS011;30450;52.534;13.398;2023-07-28T04:16:02;6.38;;;5.80;;
44720;SDS011;30450;52.534;13.398;2023-07-28T04:18:27;5.35;;;4.75;;
44720;SDS011;30450;52.534;13.398;2023-07-28T04:20:53;6.75;;;5.78;;
44720;SDS011;30450;52.534;13.398;2023-07-28T04:23:19;8.27;;;5.72;;
44720;SDS011;30450;52.534;13.398;2023-07-28T04:25:45;6.03;;;5.38;;
44720;SDS011;30450;52.534;13.398;2023-07-28T04:28:11;9.00;;;5.28;;
44720;SDS011;30450;52.534;13.398;2023-07-28T04:30:36;5.90;;;5.32;;
44720;SDS011;30450;52.534;13.398;2023-07-28T04:33:02;10.88;;;6.10;;
44720;SDS011;30450;52.534;13.398;2023-07-28T04:35:29;6.45;;;5.85;;
44720;SDS011;30450;52.534;13.398;2023-07-28T04:37:55;8.75;;;7.13;;
44720;SDS011;30450;52.534;13.398;2023-07-28T04:40:21;5.50;;;5.10;;
44720;SDS011;30450;52.534;13.398;2023-07-28T04:42:47;7.72;;;6.07;;
44720;SDS011;30450;52.534;13.398;2023-07-28T04:45:13;7.53;;;6.50;;
44720;SDS011;30450;52.534;13.398;2023-07-28T04:47:39;6.78;;;6.00;;
44720;SDS011;30450;52.534;13.398;2023-07-28T04:50:04;6.30;;;5.25;;
44720;SDS011;30450;52.534;13.398;2023-07-28T04:52:30;7.88;;;6.32;;
44720;SDS011;30450;52.534;13.398;2023-07-28T04:54:56;6.47;;;5.32;;
44720;SDS011;30450;52.534;13.398;2023-07-28T04:57:22;6.68;;;6.10;;
44720;SDS011;30450;52.534;13.398;2023-07-28T04:59:47;6.88;;;6.22;;
44720;SDS011;30450;52.534;13.398;2023-07-28T05:02:13;7.15;;;6.45;;
44720;SDS011;30450;52.534;13.398;2023-07-28T05:04:39;8.90;;;6.53;;
44720;SDS011;30450;52.534;13.398;2023-07-28T05:07:05;7.47;;;6.20;;
44720;SDS011;30450;52.534;13.398;2023-07-28T05:09:30;9.65;;;7.03;;
44720;SDS011;30450;52.534;13.398;2023-07-28T05:11:56;7.35;;;6.40;;
44720;SDS011;30450;52.534;13.398;2023-07-28T05:14:22;7.97;;;6.75;;
44720;SDS011;30450;52.534;13.398;2023-07-28T05:16:48;7.10;;;5.95;;
44720;SDS011;30450;52.534;13.398;2023-07-28T05:19:14;8.98;;;5.43;;
44720;SDS011;30450;52.534;13.398;2023-07-28T05:21:40;7.22;;;6.15;;
44720;SDS011;30450;52.534;13.398;2023-07-28T05:24:06;7.38;;;6.40;;
44720;SDS011;30450;52.534;13.398;2023-07-28T05:26:31;7.55;;;6.78;;
44720;SDS011;30450;52.534;13.398;2023-07-28T05:28:57;8.98;;;5.38;;
44720;SDS011;30450;52.534;13.398;2023-07-28T05:31:23;7.00;;;6.40;;
44720;SDS011;30450;52.534;13.398;2023-07-28T05:33:49;6.50;;;5.85;;
44720;SDS011;30450;52.534;13.398;2023-07-28T05:36:15;8.38;;;5.55;;
44720;SDS011;30450;52.534;13.398;2023-07-28T05:38:41;6.82;;;6.07;;
44720;SDS011;30450;52.534;13.398;2023-07-28T05:41:06;6.82;;;6.18;;
44720;SDS011;30450;52.534;13.398;2023-07-28T05:43:33;12.07;;;6.80;;
44720;SDS011;30450;52.534;13.398;2023-07-28T05:45:59;6.07;;;5.47;;
44720;SDS011;30450;52.534;13.398;2023-07-28T05:48:25;6.68;;;5.93;;
44720;SDS011;30450;52.534;13.398;2023-07-28T05:50:51;6.80;;;5.55;;
44720;SDS011;30450;52.534;13.398;2023-07-28T05:53:21;6.10;;;5.43;;
44720;SDS011;30450;52.534;13.398;2023-07-28T05:55:47;9.27;;;5.88;;
44720;SDS011;30450;52.534;13.398;2023-07-28T05:58:14;7.80;;;6.05;;
44720;SDS011;30450;52.534;13.398;2023-07-28T06:00:40;6.45;;;5.85;;
44720;SDS011;30450;52.534;13.398;2023-07-28T06:03:06;7.50;;;5.38;;
44720;SDS011;30450;52.534;13.398;2023-07-28T06:05:32;6.28;;;5.70;;
44720;SDS011;30450;52.534;13.398;2023-07-28T06:07:58;6.70;;;6.10;;
44720;SDS011;30450;52.534;13.398;2023-07-28T06:10:23;6.72;;;5.70;;
44720;SDS011;30450;52.534;13.398;2023-07-28T06:12:49;8.32;;;5.97;;
44720;SDS011;30450;52.534;13.398;2023-07-28T06:15:15;5.75;;;5.15;;
44720;SDS011;30450;52.534;13.398;2023-07-28T06:17:41;6.25;;;5.75;;
44720;SDS011;30450;52.534;13.398;2023-07-28T06:20:07;7.07;;;6.25;;
44720;SDS011;30450;52.534;13.398;2023-07-28T06:22:33;8.90;;;6.00;;
44720;SDS011;30450;52.534;13.398;2023-07-28T06:24:58;6.32;;;5.80;;
44720;SDS011;30450;52.534;13.398;2023-07-28T06:27:24;8.60;;;6.43;;
44720;SDS011;30450;52.534;13.398;2023-07-28T06:29:50;6.47;;;5.32;;
44720;SDS011;30450;52.534;13.398;2023-07-28T06:32:16;6.35;;;5.13;;
44720;SDS011;30450;52.534;13.398;2023-07-28T06:34:41;6.20;;;5.60;;
44720;SDS011;30450;52.534;13.398;2023-07-28T06:37:07;6.50;;;5.97;;
44720;SDS011;30450;52.534;13.398;2023-07-28T06:39:33;6.10;;;5.60;;
44720;SDS011;30450;52.534;13.398;2023-07-28T06:41:58;5.10;;;4.72;;
44720;SDS011;30450;52.534;13.398;2023-07-28T06:44:25;5.15;;;4.68;;
44720;SDS011;30450;52.534;13.398;2023-07-28T06:46:50;8.63;;;5.47;;
44720;SDS011;30450;52.534;13.398;2023-07-28T06:49:17;6.45;;;5.03;;
44720;SDS011;30450;52.534;13.398;2023-07-28T06:51:44;7.45;;;5.10;;
44720;SDS011;30450;52.534;13.398;2023-07-28T06:54:10;5.50;;;5.00;;
44720;SDS011;30450;52.534;13.398;2023-07-28T06:59:03;5.00;;;4.20;;
44720;SDS011;30450;52.534;13.398;2023-07-28T07:01:29;7.65;;;4.05;;
44720;SDS011;30450;52.534;13.398;2023-07-28T07:03:55;4.45;;;4.03;;
44720;SDS011;30450;52.534;13.398;2023-07-28T07:06:21;7.47;;;4.28;;
44720;SDS011;30450;52.534;13.398;2023-07-28T07:08:47;4.43;;;4.07;;
44720;SDS011;30450;52.534;13.398;2023-07-28T07:11:13;4.40;;;4.05;;
44720;SDS011;30450;52.534;13.398;2023-07-28T07:13:39;4.43;;;4.00;;
44720;SDS011;30450;52.534;13.398;2023-07-28T07:16:04;5.90;;;3.97;;
44720;SDS011;30450;52.534;13.398;2023-07-28T07:18:32;11.95;;;10.63;;
44720;SDS011;30450;52.534;13.398;2023-07-28T07:21:01;9.98;;;8.15;;
44720;SDS011;30450;52.534;13.398;2023-07-28T07:23:26;19.25;;;15.05;;
44720;SDS011;30450;52.534;13.398;2023-07-28T07:25:53;9.88;;;8.88;;
44720;SDS011;30450;52.534;13.398;2023-07-28T07:28:18;5.68;;;3.90;;
44720;SDS011;30450;52.534;13.398;2023-07-28T07:30:45;3.80;;;3.20;;
44720;SDS011;30450;52.534;13.398;2023-07-28T07:33:11;3.80;;;3.50;;
44720;SDS011;30450;52.534;13.398;2023-07-28T07:35:37;3.53;;;3.22;;
44720;SDS011;30450;52.534;13.398;2023-07-28T07:38:04;6.22;;;3.17;;
44720;SDS011;30450;52.534;13.398;2023-07-28T07:40:34;3.33;;;3.13;;
44720;SDS011;30450;52.534;13.398;2023-07-28T07:43:01;4.75;;;2.85;;
44720;SDS011;30450;52.534;13.398;2023-07-28T07:45:29;6.65;;;2.72;;
44720;SDS011;30450;52.534;13.398;2023-07-28T07:47:55;5.22;;;3.20;;
44720;SDS011;30450;52.534;13.398;2023-07-28T07:50:20;3.85;;;2.55;;
44720;SDS011;30450;52.534;13.398;2023-07-28T07:52:47;2.90;;;2.58;;
44720;SDS011;30450;52.534;13.398;2023-07-28T07:55:13;2.78;;;2.58;;
44720;SDS011;30450;52.534;13.398;2023-07-28T07:57:39;3.00;;;2.72;;
44720;SDS011;30450;52.534;13.398;2023-07-28T08:00:05;2.85;;;2.45;;
44720;SDS011;30450;52.534;13.398;2023-07-28T08:02:31;4.07;;;1.90;;
44720;SDS011;30450;52.534;13.398;2023-07-28T08:04:57;2.17;;;1.85;;
44720;SDS011;30450;52.534;13.398;2023-07-28T08:07:23;1.95;;;1.65;;
44720;SDS011;30450;52.534;13.398;2023-07-28T08:09:52;1.70;;;1.60;;
44720;SDS011;30450;52.534;13.398;2023-07-28T08:12:17;3.50;;;2.00;;
44720;SDS011;30450;52.534;13.398;2023-07-28T08:14:43;1.80;;;1.70;;
44720;SDS011;30450;52.534;13.398;2023-07-28T08:17:11;4.10;;;1.67;;
44720;SDS011;30450;52.534;13.398;2023-07-28T08:19:37;3.13;;;2.20;;
44720;SDS011;30450;52.534;13.398;2023-07-28T08:22:03;2.08;;;1.98;;
44720;SDS011;30450;52.534;13.398;2023-07-28T08:24:30;2.00;;;1.80;;
44720;SDS011;30450;52.534;13.398;2023-07-28T08:26:57;3.70;;;2.50;;
44720;SDS011;30450;52.534;13.398;2023-07-28T08:29:23;6.05;;;2.28;;
44720;SDS011;30450;52.534;13.398;2023-07-28T08:31:48;1.70;;;1.60;;
44720;SDS011;30450;52.534;13.398;2023-07-28T08:34:15;1.63;;;1.23;;
44720;SDS011;30450;52.534;13.398;2023-07-28T08:36:43;2.05;;;1.70;;
44720;SDS011;30450;52.534;13.398;2023-07-28T08:39:09;1.80;;;1.30;;
44720;SDS011;30450;52.534;13.398;2023-07-28T08:41:35;1.63;;;1.50;;
44720;SDS011;30450;52.534;13.398;2023-07-28T08:44:01;1.60;;;1.50;;
44720;SDS011;30450;52.534;13.398;2023-07-28T08:46:27;4.82;;;2.08;;
44720;SDS011;30450;52.534;13.398;2023-07-28T08:48:54;1.88;;;1.77;;
44720;SDS011;30450;52.534;13.398;2023-07-28T08:51:22;2.22;;;1.58;;
44720;SDS011;30450;52.534;13.398;2023-07-28T08:53:48;2.53;;;2.33;;
44720;SDS011;30450;52.534;13.398;2023-07-28T08:56:14;1.80;;;1.60;;
44720;SDS011;30450;52.534;13.398;2023-07-28T08:58:39;2.83;;;2.00;;
44720;SDS011;30450;52.534;13.398;2023-07-28T09:01:05;1.30;;;1.10;;
44720;SDS011;30450;52.534;13.398;2023-07-28T09:03:31;1.70;;;1.60;;
44720;SDS011;30450;52.534;13.398;2023-07-28T09:08:24;4.38;;;1.60;;
44720;SDS011;30450;52.534;13.398;2023-07-28T09:10:50;1.50;;;1.17;;
44720;SDS011;30450;52.534;13.398;2023-07-28T09:13:23;2.25;;;1.30;;
44720;SDS011;30450;52.534;13.398;2023-07-28T09:15:50;2.10;;;1.20;;
44720;SDS011;30450;52.534;13.398;2023-07-28T09:18:17;2.17;;;1.20;;
44720;SDS011;30450;52.534;13.398;2023-07-28T09:20:44;2.45;;;1.00;;
44720;SDS011;30450;52.534;13.398;2023-07-28T09:23:10;2.53;;;1.27;;
44720;SDS011;30450;52.534;13.398;2023-07-28T09:25:36;3.53;;;1.00;;
44720;SDS011;30450;52.534;13.398;2023-07-28T09:28:02;4.28;;;2.45;;
44720;SDS011;30450;52.534;13.398;2023-07-28T09:30:42;7.50;;;2.47;;
44720;SDS011;30450;52.534;13.398;2023-07-28T09:33:09;2.88;;;2.40;;
44720;SDS011;30450;52.534;13.398;2023-07-28T09:35:34;2.38;;;1.80;;
44720;SDS011;30450;52.534;13.398;2023-07-28T09:40:38;3.05;;;1.73;;
44720;SDS011;30450;52.534;13.398;2023-07-28T09:43:05;1.77;;;1.67;;
44720;SDS011;30450;52.534;13.398;2023-07-28T09:45:31;2.60;;;1.70;;
44720;SDS011;30450;52.534;13.398;2023-07-28T09:47:57;1.63;;;1.52;;
44720;SDS011;30450;52.534;13.398;2023-07-28T09:52:53;2.00;;;1.80;;
44720;SDS011;30450;52.534;13.398;2023-07-28T09:55:21;3.20;;;1.60;;
44720;SDS011;30450;52.534;13.398;2023-07-28T09:57:51;2.08;;;1.63;;
44720;SDS011;30450;52.534;13.398;2023-07-28T10:00:17;1.50;;;1.35;;
44720;SDS011;30450;52.534;13.398;2023-07-28T10:02:44;6.22;;;1.85;;
44720;SDS011;30450;52.534;13.398;2023-07-28T10:05:10;2.20;;;1.33;;
44720;SDS011;30450;52.534;13.398;2023-07-28T10:07:38;5.80;;;1.30;;
44720;SDS011;30450;52.534;13.398;2023-07-28T10:10:04;1.00;;;1.00;;
44720;SDS011;30450;52.534;13.398;2023-07-28T10:12:48;2.03;;;1.58;;
44720;SDS011;30450;52.534;13.398;2023-07-28T10:15:19;4.05;;;1.70;;
44720;SDS011;30450;52.534;13.398;2023-07-28T10:17:53;1.60;;;1.50;;
44720;SDS011;30450;52.534;13.398;2023-07-28T10:23:03;2.17;;;1.70;;
44720;SDS011;30450;52.534;13.398;2023-07-28T10:25:30;2.13;;;1.92;;
44720;SDS011;30450;52.534;13.398;2023-07-28T10:27:57;3.78;;;1.52;;
44720;SDS011;30450;52.534;13.398;2023-07-28T10:30:23;1.92;;;1.83;;
44720;SDS011;30450;52.534;13.398;2023-07-28T10:32:49;7.10;;;1.85;;
44720;SDS011;30450;52.534;13.398;2023-07-28T10:35:23;2.55;;;1.48;;
44720;SDS011;30450;52.534;13.398;2023-07-28T10:37:50;3.92;;;1.92;;
44720;SDS011;30450;52.534;13.398;2023-07-28T10:40:32;2.13;;;1.85;;
44720;SDS011;30450;52.534;13.398;2023-07-28T10:43:00;2.22;;;1.88;;
44720;SDS011;30450;52.534;13.398;2023-07-28T10:45:27;2.08;;;1.55;;
44720;SDS011;30450;52.534;13.398;2023-07-28T10:47:53;3.78;;;2.22;;
44720;SDS011;30450;52.534;13.398;2023-07-28T10:50:22;3.05;;;2.08;;
44720;SDS011;30450;52.534;13.398;2023-07-28T10:52:48;2.08;;;1.98;;
44720;SDS011;30450;52.534;13.398;2023-07-28T10:55:15;2.53;;;1.88;;
44720;SDS011;30450;52.534;13.398;2023-07-28T10:57:41;2.05;;;1.77;;
44720;SDS011;30450;52.534;13.398;2023-07-28T11:00:07;4.28;;;2.17;;
44720;SDS011;30450;52.534;13.398;2023-07-28T11:02:36;3.42;;;2.47;;
44720;SDS011;30450;52.534;13.398;2023-07-28T11:05:10;2.88;;;2.25;;
44720;SDS011;30450;52.534;13.398;2023-07-28T11:07:36;2.40;;;2.20;;
44720;SDS011;30450;52.534;13.398;2023-07-28T11:10:03;5.18;;;2.70;;
44720;SDS011;30450;52.534;13.398;2023-07-28T11:12:29;3.72;;;1.52;;
44720;SDS011;30450;52.534;13.398;2023-07-28T11:14:54;1.83;;;1.73;;
44720;SDS011;30450;52.534;13.398;2023-07-28T11:17:20;3.72;;;1.85;;
44720;SDS011;30450;52.534;13.398;2023-07-28T11:19:47;1.73;;;1.63;;
44720;SDS011;30450;52.534;13.398;2023-07-28T11:22:16;2.50;;;1.98;;
44720;SDS011;30450;52.534;13.398;2023-07-28T11:24:42;4.53;;;2.10;;
44720;SDS011;30450;52.534;13.398;2023-07-28T11:27:07;3.70;;;2.15;;
44720;SDS011;30450;52.534;13.398;2023-07-28T11:29:33;3.00;;;2.10;;
44720;SDS011;30450;52.534;13.398;2023-07-28T11:32:00;2.58;;;2.22;;
44720;SDS011;30450;52.534;13.398;2023-07-28T11:34:25;2.80;;;2.60;;
44720;SDS011;30450;52.534;13.398;2023-07-28T11:36:51;3.25;;;2.40;;
44720;SDS011;30450;52.534;13.398;2023-07-28T11:39:17;4.03;;;3.10;;
44720;SDS011;30450;52.534;13.398;2023-07-28T11:41:43;3.17;;;2.30;;
44720;SDS011;30450;52.534;13.398;2023-07-28T11:44:09;3.53;;;3.03;;
44720;SDS011;30450;52.534;13.398;2023-07-28T11:46:36;2.05;;;1.88;;
44720;SDS011;30450;52.534;13.398;2023-07-28T11:49:11;1.80;;;1.70;;
44720;SDS011;30450;52.534;13.398;2023-07-28T11:51:38;2.20;;;2.00;;
44720;SDS011;30450;52.534;13.398;2023-07-28T11:54:05;3.53;;;2.20;;
44720;SDS011;30450;52.534;13.398;2023-07-28T11:56:31;2.28;;;2.08;;
44720;SDS011;30450;52.534;13.398;2023-07-28T11:58:57;2.30;;;1.95;;
44720;SDS011;30450;52.534;13.398;2023-07-28T12:01:23;4.35;;;2.03;;
44720;SDS011;30450;52.534;13.398;2023-07-28T12:03:49;2.33;;;1.80;;
44720;SDS011;30450;52.534;13.398;2023-07-28T12:06:14;3.47;;;2.15;;
44720;SDS011;30450;52.534;13.398;2023-07-28T12:08:40;2.10;;;2.00;;
44720;SDS011;30450;52.534;13.398;2023-07-28T12:11:11;2.57;;;1.83;;
44720;SDS011;30450;52.534;13.398;2023-07-28T12:13:48;2.17;;;1.98;;
44720;SDS011;30450;52.534;13.398;2023-07-28T12:18:59;4.05;;;1.50;;
44720;SDS011;30450;52.534;13.398;2023-07-28T12:21:25;1.60;;;1.50;;
44720;SDS011;30450;52.534;13.398;2023-07-28T12:23:50;1.20;;;1.10;;
44720;SDS011;30450;52.534;13.398;2023-07-28T12:26:16;1.60;;;1.50;;
44720;SDS011;30450;52.534;13.398;2023-07-28T12:28:43;2.30;;;2.10;;
44720;SDS011;30450;52.534;13.398;2023-07-28T12:31:09;2.17;;;2.00;;
44720;SDS011;30450;52.534;13.398;2023-07-28T12:33:34;3.92;;;1.90;;
44720;SDS011;30450;52.534;13.398;2023-07-28T12:36:00;1.70;;;1.45;;
44720;SDS011;30450;52.534;13.398;2023-07-28T12:38:26;1.38;;;1.27;;
44720;SDS011;30450;52.534;13.398;2023-07-28T12:40:51;3.55;;;1.40;;
44720;SDS011;30450;52.534;13.398;2023-07-28T12:43:18;3.33;;;1.50;;
44720;SDS011;30450;52.534;13.398;2023-07-28T12:45:43;2.17;;;1.50;;
44720;SDS011;30450;52.534;13.398;2023-07-28T12:48:09;4.05;;;1.80;;
44720;SDS011;30450;52.534;13.398;2023-07-28T12:50:35;1.38;;;1.27;;
44720;SDS011;30450;52.534;13.398;2023-07-28T12:53:00;1.90;;;1.73;;
44720;SDS011;30450;52.534;13.398;2023-07-28T12:55:26;3.25;;;1.70;;
44720;SDS011;30450;52.534;13.398;2023-07-28T12:57:52;6.57;;;1.88;;
44720;SDS011;30450;52.534;13.398;2023-07-28T13:00:18;2.85;;;1.70;;
44720;SDS011;30450;52.534;13.398;2023-07-28T13:02:44;1.40;;;1.30;;
44720;SDS011;30450;52.534;13.398;2023-07-28T13:05:11;2.20;;;1.90;;
44720;SDS011;30450;52.534;13.398;2023-07-28T13:07:38;2.20;;;1.60;;
44720;SDS011;30450;52.534;13.398;2023-07-28T13:10:05;1.80;;;1.70;;
44720;SDS011;30450;52.534;13.398;2023-07-28T13:12:31;2.20;;;1.65;;
44720;SDS011;30450;52.534;13.398;2023-07-28T13:14:57;3.83;;;1.90;;
44720;SDS011;30450;52.534;13.398;2023-07-28T13:17:22;3.15;;;1.30;;
44720;SDS011;30450;52.534;13.398;2023-07-28T13:19:48;1.65;;;1.50;;
44720;SDS011;30450;52.534;13.398;2023-07-28T13:22:14;1.85;;;1.70;;
44720;SDS011;30450;52.534;13.398;2023-07-28T13:24:39;2.15;;;1.77;;
44720;SDS011;30450;52.534;13.398;2023-07-28T13:27:06;4.35;;;1.85;;
44720;SDS011;30450;52.534;13.398;2023-07-28T13:29:32;2.28;;;2.03;;
44720;SDS011;30450;52.534;13.398;2023-07-28T13:31:58;1.70;;;1.60;;
44720;SDS011;30450;52.534;13.398;2023-07-28T13:34:26;1.92;;;1.80;;
44720;SDS011;30450;52.534;13.398;2023-07-28T13:36:55;2.33;;;1.88;;
44720;SDS011;30450;52.534;13.398;2023-07-28T13:39:22;2.72;;;1.80;;
44720;SDS011;30450;52.534;13.398;2023-07-28T13:41:47;1.85;;;1.75;;
44720;SDS011;30450;52.534;13.398;2023-07-28T13:44:13;2.20;;;1.50;;
44720;SDS011;30450;52.534;13.398;2023-07-28T13:46:39;2.00;;;1.90;;
44720;SDS011;30450;52.534;13.398;2023-07-28T13:49:05;2.55;;;1.38;;
44720;SDS011;30450;52.534;13.398;2023-07-28T13:51:31;1.60;;;1.40;;
44720;SDS011;30450;52.534;13.398;2023-07-28T13:53:56;2.05;;;1.95;;
44720;SDS011;30450;52.534;13.398;2023-07-28T13:56:22;1.85;;;1.75;;
44720;SDS011;30450;52.534;13.398;2023-07-28T13:58:48;3.97;;;2.10;;
44720;SDS011;30450;52.534;13.398;2023-07-28T14:01:13;2.38;;;2.17;;
44720;SDS011;30450;52.534;13.398;2023-07-28T14:03:39;1.80;;;1.70;;
44720;SDS011;30450;52.534;13.398;2023-07-28T14:06:05;2.17;;;1.90;;
44720;SDS011;30450;52.534;13.398;2023-07-28T14:08:30;4.07;;;1.92;;
44720;SDS011;30450;52.534;13.398;2023-07-28T14:10:56;1.90;;;1.75;;
44720;SDS011;30450;52.534;13.398;2023-07-28T14:13:22;2.40;;;2.20;;
44720;SDS011;30450;52.534;13.398;2023-07-28T14:15:49;1.85;;;1.75;;
44720;SDS011;30450;52.534;13.398;2023-07-28T14:20:41;1.90;;;1.58;;
44720;SDS011;30450;52.534;13.398;2023-07-28T14:23:28;3.80;;;1.90;;
44720;SDS011;30450;52.534;13.398;2023-07-28T14:25:54;3.65;;;1.73;;
44720;SDS011;30450;52.534;13.398;2023-07-28T14:28:20;1.70;;;1.60;;
44720;SDS011;30450;52.534;13.398;2023-07-28T14:30:46;1.87;;;1.77;;
44720;SDS011;30450;52.534;13.398;2023-07-28T14:33:13;1.90;;;1.80;;
44720;SDS011;30450;52.534;13.398;2023-07-28T14:35:39;1.88;;;1.77;;
44720;SDS011;30450;52.534;13.398;2023-07-28T14:38:05;4.05;;;1.67;;
44720;SDS011;30450;52.534;13.398;2023-07-28T14:40:31;1.80;;;1.70;;
44720;SDS011;30450;52.534;13.398;2023-07-28T14:42:56;1.63;;;1.52;;
44720;SDS011;30450;52.534;13.398;2023-07-28T14:45:22;1.67;;;1.58;;
44720;SDS011;30450;52.534;13.398;2023-07-28T14:47:48;1.50;;;1.40;;
44720;SDS011;30450;52.534;13.398;2023-07-28T14:50:14;1.70;;;1.35;;
44720;SDS011;30450;52.534;13.398;2023-07-28T14:52:39;1.63;;;1.40;;